McNamara, CA

5:18 PM PDT on August 19, 2017 (GMT -0700)
McNamara | | Change Station
Active Advisory: Fire Weather Warning Active Notice: Public Information Statement

Elev 56 ft 41.78 °N, 124.24 °W | Updated 22 minutes ago

Overcast
Overcast
59 °F
Feels Like 59 °F
N
24
Wind Variable Wind from NNW
Gusts 41 mph

Today
High -- | Low -- °F
--% Chance of Precip.
Yesterday
High -- | Low -- °F
Precip. -- in
Pressure 29.88 in
Visibility 7.0 miles
Clouds Overcast 2300 ft
Dew Point 50 °F
Humidity 72%
Rainfall 0.00 in
Snow Depth Not available.
6:29 AM 8:10 PM
Waning Crescent, 4% visible
METAR KCEC 192356Z AUTO 34021G36KT 7SM OVC023 15/10 A2987 RMK AO2 PK WND 34036/2350 SLP117 T01500100 10167 20150 56016
Pressure 29.88 in
Visibility 7.0 miles
Clouds Overcast 2300 ft
Dew Point 50 °F
Humidity 72%
Rainfall 0.00 in
Snow Depth Not available.
6:29 AM 8:10 PM
Waning Crescent, 4% visible
METAR KCEC 192356Z AUTO 34021G36KT 7SM OVC023 15/10 A2987 RMK AO2 PK WND 34036/2350 SLP117 T01500100 10167 20150 56016

Get Your Daily Forecast Email!

Thanks for signing up!

Be on the lookout for a verification email in your inbox.

You'll start receiving severe weather alerts in your inbox..

×

10-Day Weather Forecast

Almanac

Astronomy

Aug. 19, 2017 Rise Set
Actual Time
Civil Twilight
Nautical Twilight
Astronomical Twilight
Moon
Length of Visible Light
Length of Day
Tomorrow will be .
, % of the Moon is Illuminated

Today's Extremes

State Highs State Lows

Community

WunderPhotos

Category 6

Welcome to Category 6. This is the collective home for Weather Underground's featured writeups by Dr. Jeff Masters (right), Bob Henson (left), Chris Burt, and other regular contributors.

Nearby

Air Quality

  Air Quality AQ Index Pollutant
Not available.

Snow Depth

Station Depth Elevation

Earthquake Activity

City Distance Mag. Time & Date
Minimum magnitude displayed is 2.5.

Coastal Water Temperatures

Place Temperature

Stations

Nearby Weather Stations

Station Location Temp. Windchill Dew Point Humidity Wind Precip. Elev Updated Type
                   

Watches & Warnings

Fire Weather Warning
Issued: 3:20 PM PDT Aug. 19, 2017 – National Weather Service

... Red flag warning remains in effect until 8 am PDT Sunday above
1500 feet...

* affected area... fire weather zone 203.

* Wind... northeast winds gusting from 20 to 30 mph.

* Humidity... overnight rh values near 20 percent.

* Impacts... any fires that develop will likely spread rapidly.

Precautionary/preparedness actions...

A red flag warning means that critical fire weather conditions
are either occurring now,or will shortly. A combination of strong
winds,low relative humidity,and warm temperatures can contribute
to extreme fire behavior.




Http://weather.Gov/Eureka